Bookmark and Share
Track history (hours):
 

Nathalie

Last reported at 2014-Apr-20 12:31 UTC. Time now 2014-Apr-20 13:22 UTC.
Position N 59°28' E 024°43'.

Length 64 m; draft 2.3 m.

Type: Cargo ship. MMSI: 230987660.

NotesDate/timePositionNaut miles runAvg speedWind from/ knotsBaromVisibWave heightAir tempDewpointWater temp
2014-Apr-20 12:31N 59°28' E 024°43'0 0.0
2014-Apr-20 11:31N 59°28' E 024°43'0 0.0
2014-Apr-20 10:31N 59°28' E 024°43'0 0.0
2014-Apr-20 09:31N 59°28' E 024°43'0 0.0
2014-Apr-20 08:31N 59°28' E 024°43'0 0.0
2014-Apr-20 07:31N 59°28' E 024°43'0 0.0
2014-Apr-20 06:28N 59°28' E 024°43'0 0.0
2014-Apr-20 05:25N 59°28' E 024°43'0 0.0
2014-Apr-20 04:31N 59°28' E 024°43'0 0.0
2014-Apr-20 03:34N 59°28' E 024°43'0 0.0
2014-Apr-20 02:33N 59°28' E 024°43'0 0.0
2014-Apr-20 01:33N 59°28' E 024°43'0 0.0
2014-Apr-20 00:33N 59°28' E 024°43'0 0.0
2014-Apr-19 23:33N 59°28' E 024°43'0 0.0
2014-Apr-19 22:33N 59°28' E 024°43'0 0.0
2014-Apr-19 21:30N 59°28' E 024°43'0 0.0
2014-Apr-19 20:33N 59°28' E 024°43'0 0.0
2014-Apr-19 19:27N 59°28' E 024°43'0 0.0
2014-Apr-19 18:33N 59°28' E 024°43'0 0.0
2014-Apr-19 17:33N 59°28' E 024°43'0 0.0
2014-Apr-19 16:33N 59°28' E 024°43'0 0.0
2014-Apr-19 15:33N 59°28' E 024°43'0 0.0
2014-Apr-19 14:30N 59°28' E 024°43'0 0.0
2014-Apr-19 13:33N 59°28' E 024°43'0 0.0
2014-Apr-19 12:33N 59°28' E 024°43'0 0.0
2014-Apr-19 11:33N 59°28' E 024°43'0 0.0
2014-Apr-19 10:33N 59°28' E 024°43'0 0.0
2014-Apr-19 09:30N 59°28' E 024°43'0 0.0
2014-Apr-19 08:33N 59°28' E 024°43'0 0.0
2014-Apr-19 07:33N 59°28' E 024°43'0 0.0
2014-Apr-19 06:33N 59°28' E 024°43'0 0.0
2014-Apr-19 05:33N 59°28' E 024°43'0 0.0
2014-Apr-19 04:33N 59°28' E 024°43'0 0.0
2014-Apr-19 03:33N 59°28' E 024°43'0 0.0
2014-Apr-19 02:33N 59°28' E 024°43'0 0.0
2014-Apr-19 01:33N 59°28' E 024°43'0 0.0
2014-Apr-19 00:33N 59°28' E 024°43'0 0.0
2014-Apr-18 23:33N 59°28' E 024°43'0 0.0
2014-Apr-18 22:33N 59°28' E 024°43'0 0.0
2014-Apr-18 21:33N 59°28' E 024°43'0 0.0
2014-Apr-18 20:33N 59°28' E 024°43'0 0.0
2014-Apr-18 19:33N 59°28' E 024°43'0 0.0
2014-Apr-18 18:33N 59°28' E 024°43'0 0.0
2014-Apr-18 17:33N 59°28' E 024°43'0 0.0
2014-Apr-18 16:32N 59°28' E 024°43'0 0.0
2014-Apr-18 15:32N 59°28' E 024°43'5 5.1
2014-Apr-18 14:34N 59°33' E 024°42'8 7.8
2014-Apr-18 13:33N 59°40' E 024°46'54 8.6
2014-Apr-18 07:15N 60°00' E 026°26'6 8.5
2014-Apr-18 06:33N 60°01' E 026°38'9 8.8
2014-Apr-18 05:32N 59°60' E 026°56'97 8.8
2014-Apr-17 18:33N 59°54' E 030°08'164 3.7
2014-Apr-15 22:33N 59°51' E 024°40'9 8.9
2014-Apr-15 21:32N 59°49' E 024°23'20 8.8
2014-Apr-15 19:17N 59°44' E 023°45'7 8.7
2014-Apr-15 18:31N 59°42' E 023°33'60 7.6
2014-Apr-15 10:34N 59°36' E 021°34'99 7.6
2014-Apr-14 21:33N 59°22' E 018°21'8 8.3
2014-Apr-14 20:34N 59°19' E 018°06'5 4.6
2014-Apr-14 19:34N 59°18' E 017°57'  
2014-Apr-10 22:11N 55°00' E 015°31'5 7.4
2014-Apr-10 21:29N 55°04' E 015°25'7 8.0
2014-Apr-10 20:33N 55°10' E 015°16'8 8.2
2014-Apr-10 19:33N 55°16' E 015°08'8 7.9
2014-Apr-10 18:33N 55°22' E 014°58'8 7.7
2014-Apr-10 17:33N 55°30' E 014°55'7 7.1
2014-Apr-10 16:33N 55°37' E 014°54'8 7.7
2014-Apr-10 15:33N 55°44' E 014°52'  

Dump ship's entire track history

sailing weather and tide predictions

Nathalie — OJLP — position and weather